sensor_id;sensor_type;location;lat;lon;timestamp;temperature;humidity
43920;DHT22;29578;51.946;5.874;2022-12-24T00:01:11;10.50;93.10
43920;DHT22;29578;51.946;5.874;2022-12-24T00:03:37;10.40;93.00
43920;DHT22;29578;51.946;5.874;2022-12-24T00:06:06;10.50;93.10
43920;DHT22;29578;51.946;5.874;2022-12-24T00:08:33;10.40;93.00
43920;DHT22;29578;51.946;5.874;2022-12-24T00:10:59;10.40;93.00
43920;DHT22;29578;51.946;5.874;2022-12-24T00:13:25;10.40;93.00
43920;DHT22;29578;51.946;5.874;2022-12-24T00:15:50;10.40;93.00
43920;DHT22;29578;51.946;5.874;2022-12-24T00:18:16;10.40;93.10
43920;DHT22;29578;51.946;5.874;2022-12-24T00:20:46;10.40;93.00
43920;DHT22;29578;51.946;5.874;2022-12-24T00:23:12;10.40;93.00
43920;DHT22;29578;51.946;5.874;2022-12-24T00:25:38;10.40;93.00
43920;DHT22;29578;51.946;5.874;2022-12-24T00:28:03;10.30;92.90
43920;DHT22;29578;51.946;5.874;2022-12-24T00:30:29;10.30;92.90
43920;DHT22;29578;51.946;5.874;2022-12-24T00:32:55;10.40;92.90
43920;DHT22;29578;51.946;5.874;2022-12-24T00:35:20;10.30;92.80
43920;DHT22;29578;51.946;5.874;2022-12-24T00:37:47;10.40;92.90
43920;DHT22;29578;51.946;5.874;2022-12-24T00:40:13;10.30;92.90
43920;DHT22;29578;51.946;5.874;2022-12-24T00:42:39;10.30;92.90
43920;DHT22;29578;51.946;5.874;2022-12-24T00:45:05;10.30;92.90
43920;DHT22;29578;51.946;5.874;2022-12-24T00:47:30;10.30;92.90
43920;DHT22;29578;51.946;5.874;2022-12-24T00:49:56;10.30;92.90
43920;DHT22;29578;51.946;5.874;2022-12-24T00:52:22;10.30;92.80
43920;DHT22;29578;51.946;5.874;2022-12-24T00:54:47;10.30;92.80
43920;DHT22;29578;51.946;5.874;2022-12-24T00:57:13;10.30;92.80
43920;DHT22;29578;51.946;5.874;2022-12-24T00:59:39;10.20;92.80
43920;DHT22;29578;51.946;5.874;2022-12-24T01:02:04;10.30;92.80
43920;DHT22;29578;51.946;5.874;2022-12-24T01:04:30;10.20;92.80
43920;DHT22;29578;51.946;5.874;2022-12-24T01:07:06;10.20;92.80
43920;DHT22;29578;51.946;5.874;2022-12-24T01:09:32;10.10;92.80
43920;DHT22;29578;51.946;5.874;2022-12-24T01:12:02;10.20;92.80
43920;DHT22;29578;51.946;5.874;2022-12-24T01:14:28;10.20;92.90
43920;DHT22;29578;51.946;5.874;2022-12-24T01:16:54;10.10;92.80
43920;DHT22;29578;51.946;5.874;2022-12-24T01:19:19;10.10;92.80
43920;DHT22;29578;51.946;5.874;2022-12-24T01:21:45;10.20;92.90
43920;DHT22;29578;51.946;5.874;2022-12-24T01:24:14;10.10;92.90
43920;DHT22;29578;51.946;5.874;2022-12-24T01:26:41;10.10;92.80
43920;DHT22;29578;51.946;5.874;2022-12-24T01:29:07;10.10;92.80
43920;DHT22;29578;51.946;5.874;2022-12-24T01:31:33;10.20;92.80
43920;DHT22;29578;51.946;5.874;2022-12-24T01:33:59;10.00;92.80
43920;DHT22;29578;51.946;5.874;2022-12-24T01:36:24;10.00;92.80
43920;DHT22;29578;51.946;5.874;2022-12-24T01:38:50;10.00;92.80
43920;DHT22;29578;51.946;5.874;2022-12-24T01:41:19;10.00;92.90
43920;DHT22;29578;51.946;5.874;2022-12-24T01:44:16;10.00;92.90
43920;DHT22;29578;51.946;5.874;2022-12-24T01:46:42;9.90;92.90
43920;DHT22;29578;51.946;5.874;2022-12-24T01:49:10;9.90;92.90
43920;DHT22;29578;51.946;5.874;2022-12-24T01:51:43;9.90;92.90
43920;DHT22;29578;51.946;5.874;2022-12-24T01:54:18;9.90;92.90
43920;DHT22;29578;51.946;5.874;2022-12-24T01:56:50;9.80;92.90
43920;DHT22;29578;51.946;5.874;2022-12-24T01:59:17;9.80;92.90
43920;DHT22;29578;51.946;5.874;2022-12-24T02:01:46;9.70;93.00
43920;DHT22;29578;51.946;5.874;2022-12-24T02:07:00;9.70;93.10
43920;DHT22;29578;51.946;5.874;2022-12-24T02:09:26;9.50;93.10
43920;DHT22;29578;51.946;5.874;2022-12-24T02:11:52;9.50;93.10
43920;DHT22;29578;51.946;5.874;2022-12-24T02:14:18;9.50;93.10
43920;DHT22;29578;51.946;5.874;2022-12-24T02:16:57;9.50;93.10
43920;DHT22;29578;51.946;5.874;2022-12-24T02:19:50;9.40;93.10
43920;DHT22;29578;51.946;5.874;2022-12-24T02:22:34;9.40;93.20
43920;DHT22;29578;51.946;5.874;2022-12-24T02:25:22;9.40;93.20
43920;DHT22;29578;51.946;5.874;2022-12-24T02:30:44;9.30;93.20
43920;DHT22;29578;51.946;5.874;2022-12-24T02:33:25;9.30;93.30
43920;DHT22;29578;51.946;5.874;2022-12-24T02:36:07;9.20;93.30
43920;DHT22;29578;51.946;5.874;2022-12-24T02:38:38;9.20;93.30
43920;DHT22;29578;51.946;5.874;2022-12-24T02:41:17;9.20;93.30
43920;DHT22;29578;51.946;5.874;2022-12-24T02:43:45;9.10;93.30
43920;DHT22;29578;51.946;5.874;2022-12-24T02:46:16;9.10;93.30
43920;DHT22;29578;51.946;5.874;2022-12-24T02:48:45;9.10;93.30
43920;DHT22;29578;51.946;5.874;2022-12-24T02:51:12;9.10;93.30
43920;DHT22;29578;51.946;5.874;2022-12-24T02:53:39;9.00;93.30
43920;DHT22;29578;51.946;5.874;2022-12-24T02:59:29;8.90;93.40
43920;DHT22;29578;51.946;5.874;2022-12-24T03:02:23;8.90;93.40
43920;DHT22;29578;51.946;5.874;2022-12-24T03:05:09;8.80;93.40
43920;DHT22;29578;51.946;5.874;2022-12-24T03:07:44;8.90;93.40
43920;DHT22;29578;51.946;5.874;2022-12-24T03:10:41;8.90;93.40
43920;DHT22;29578;51.946;5.874;2022-12-24T03:13:11;8.90;93.40
43920;DHT22;29578;51.946;5.874;2022-12-24T03:15:38;8.80;93.30
43920;DHT22;29578;51.946;5.874;2022-12-24T03:18:05;8.70;93.30
43920;DHT22;29578;51.946;5.874;2022-12-24T03:23:20;8.80;93.40
43920;DHT22;29578;51.946;5.874;2022-12-24T03:25:45;8.70;93.40
43920;DHT22;29578;51.946;5.874;2022-12-24T03:28:13;8.70;93.40
43920;DHT22;29578;51.946;5.874;2022-12-24T03:30:42;8.70;93.40
43920;DHT22;29578;51.946;5.874;2022-12-24T03:33:09;8.70;93.40
43920;DHT22;29578;51.946;5.874;2022-12-24T03:35:35;8.70;93.50
43920;DHT22;29578;51.946;5.874;2022-12-24T03:38:00;8.70;93.40
43920;DHT22;29578;51.946;5.874;2022-12-24T03:40:26;8.80;93.50
43920;DHT22;29578;51.946;5.874;2022-12-24T03:42:52;8.70;93.50
43920;DHT22;29578;51.946;5.874;2022-12-24T03:45:17;8.70;93.50
43920;DHT22;29578;51.946;5.874;2022-12-24T03:47:43;8.80;93.50
43920;DHT22;29578;51.946;5.874;2022-12-24T03:50:09;8.80;93.40
43920;DHT22;29578;51.946;5.874;2022-12-24T03:52:34;8.90;93.40
43920;DHT22;29578;51.946;5.874;2022-12-24T03:55:00;9.00;93.40
43920;DHT22;29578;51.946;5.874;2022-12-24T03:57:26;9.00;93.30
43920;DHT22;29578;51.946;5.874;2022-12-24T03:59:51;9.00;93.30
43920;DHT22;29578;51.946;5.874;2022-12-24T04:02:17;9.00;93.30
43920;DHT22;29578;51.946;5.874;2022-12-24T04:04:42;9.10;93.30
43920;DHT22;29578;51.946;5.874;2022-12-24T04:07:08;9.10;93.20
43920;DHT22;29578;51.946;5.874;2022-12-24T04:09:34;9.20;93.20
43920;DHT22;29578;51.946;5.874;2022-12-24T04:12:00;9.30;93.20
43920;DHT22;29578;51.946;5.874;2022-12-24T04:14:25;9.20;93.10
43920;DHT22;29578;51.946;5.874;2022-12-24T04:16:51;9.30;93.10
43920;DHT22;29578;51.946;5.874;2022-12-24T04:19:17;9.30;93.10
43920;DHT22;29578;51.946;5.874;2022-12-24T04:21:42;9.40;93.10
43920;DHT22;29578;51.946;5.874;2022-12-24T04:24:08;9.50;93.10
43920;DHT22;29578;51.946;5.874;2022-12-24T04:26:33;9.40;93.00
43920;DHT22;29578;51.946;5.874;2022-12-24T04:28:59;9.50;93.00
43920;DHT22;29578;51.946;5.874;2022-12-24T04:31:25;9.60;93.00
43920;DHT22;29578;51.946;5.874;2022-12-24T04:33:51;9.50;93.00
43920;DHT22;29578;51.946;5.874;2022-12-24T04:36:18;9.60;93.00
43920;DHT22;29578;51.946;5.874;2022-12-24T04:38:45;9.60;93.00
43920;DHT22;29578;51.946;5.874;2022-12-24T04:41:14;9.70;93.00
43920;DHT22;29578;51.946;5.874;2022-12-24T04:43:40;9.70;92.90
43920;DHT22;29578;51.946;5.874;2022-12-24T04:46:08;9.90;92.90
43920;DHT22;29578;51.946;5.874;2022-12-24T04:48:35;9.90;92.90
43920;DHT22;29578;51.946;5.874;2022-12-24T04:51:04;9.90;92.90
43920;DHT22;29578;51.946;5.874;2022-12-24T04:53:31;9.90;92.90
43920;DHT22;29578;51.946;5.874;2022-12-24T04:55:57;9.90;92.90
43920;DHT22;29578;51.946;5.874;2022-12-24T04:58:23;10.00;92.90
43920;DHT22;29578;51.946;5.874;2022-12-24T05:00:49;9.90;92.90
43920;DHT22;29578;51.946;5.874;2022-12-24T05:03:14;9.90;92.90
43920;DHT22;29578;51.946;5.874;2022-12-24T05:05:40;10.00;92.90
43920;DHT22;29578;51.946;5.874;2022-12-24T05:08:06;10.00;92.90
43920;DHT22;29578;51.946;5.874;2022-12-24T05:10:32;10.00;92.90
43920;DHT22;29578;51.946;5.874;2022-12-24T05:12:57;9.90;92.90
43920;DHT22;29578;51.946;5.874;2022-12-24T05:15:23;10.00;93.00
43920;DHT22;29578;51.946;5.874;2022-12-24T05:17:49;10.00;92.90
43920;DHT22;29578;51.946;5.874;2022-12-24T05:20:15;10.00;92.90
43920;DHT22;29578;51.946;5.874;2022-12-24T05:22:41;10.00;92.90
43920;DHT22;29578;51.946;5.874;2022-12-24T05:25:18;10.00;93.00
43920;DHT22;29578;51.946;5.874;2022-12-24T05:27:58;10.10;93.00
43920;DHT22;29578;51.946;5.874;2022-12-24T05:30:24;10.10;93.00
43920;DHT22;29578;51.946;5.874;2022-12-24T05:32:49;10.10;93.00
43920;DHT22;29578;51.946;5.874;2022-12-24T05:35:15;10.10;92.90
43920;DHT22;29578;51.946;5.874;2022-12-24T05:37:40;10.10;93.00
43920;DHT22;29578;51.946;5.874;2022-12-24T05:40:07;10.20;93.00
43920;DHT22;29578;51.946;5.874;2022-12-24T05:42:32;10.20;93.00
43920;DHT22;29578;51.946;5.874;2022-12-24T05:44:58;10.20;93.00
43920;DHT22;29578;51.946;5.874;2022-12-24T05:47:23;10.20;93.00
43920;DHT22;29578;51.946;5.874;2022-12-24T05:49:49;10.20;93.00
43920;DHT22;29578;51.946;5.874;2022-12-24T05:52:15;10.20;93.00
43920;DHT22;29578;51.946;5.874;2022-12-24T05:54:40;10.20;93.00
43920;DHT22;29578;51.946;5.874;2022-12-24T05:57:06;10.20;93.00
43920;DHT22;29578;51.946;5.874;2022-12-24T05:59:32;10.30;93.00
43920;DHT22;29578;51.946;5.874;2022-12-24T06:01:58;10.30;93.00
43920;DHT22;29578;51.946;5.874;2022-12-24T06:04:23;10.30;93.00
43920;DHT22;29578;51.946;5.874;2022-12-24T06:06:49;10.30;93.00
43920;DHT22;29578;51.946;5.874;2022-12-24T06:09:15;10.30;93.00
43920;DHT22;29578;51.946;5.874;2022-12-24T06:11:41;10.30;93.00
43920;DHT22;29578;51.946;5.874;2022-12-24T06:14:07;10.30;93.00
43920;DHT22;29578;51.946;5.874;2022-12-24T06:16:33;10.40;93.00
43920;DHT22;29578;51.946;5.874;2022-12-24T06:18:58;10.30;93.00
43920;DHT22;29578;51.946;5.874;2022-12-24T06:21:24;10.30;93.00
43920;DHT22;29578;51.946;5.874;2022-12-24T06:23:50;10.30;93.00
43920;DHT22;29578;51.946;5.874;2022-12-24T06:26:19;10.30;93.00
43920;DHT22;29578;51.946;5.874;2022-12-24T06:28:46;10.40;93.10
43920;DHT22;29578;51.946;5.874;2022-12-24T06:31:15;10.30;93.00
43920;DHT22;29578;51.946;5.874;2022-12-24T06:33:42;10.40;93.10
43920;DHT22;29578;51.946;5.874;2022-12-24T06:36:10;10.40;93.10
43920;DHT22;29578;51.946;5.874;2022-12-24T06:38:37;10.40;93.00
43920;DHT22;29578;51.946;5.874;2022-12-24T06:41:06;10.40;93.00
43920;DHT22;29578;51.946;5.874;2022-12-24T06:43:32;10.30;93.00
43920;DHT22;29578;51.946;5.874;2022-12-24T06:45:59;10.40;93.10
43920;DHT22;29578;51.946;5.874;2022-12-24T06:48:25;10.40;93.10
43920;DHT22;29578;51.946;5.874;2022-12-24T06:50:50;10.40;93.10
43920;DHT22;29578;51.946;5.874;2022-12-24T06:53:16;10.40;93.00
43920;DHT22;29578;51.946;5.874;2022-12-24T06:55:42;10.40;93.00
43920;DHT22;29578;51.946;5.874;2022-12-24T06:58:08;10.40;93.10
43920;DHT22;29578;51.946;5.874;2022-12-24T07:00:33;10.40;93.00
43920;DHT22;29578;51.946;5.874;2022-12-24T07:02:59;10.40;93.10
43920;DHT22;29578;51.946;5.874;2022-12-24T07:05:25;10.40;93.10
43920;DHT22;29578;51.946;5.874;2022-12-24T07:07:51;10.40;93.10
43920;DHT22;29578;51.946;5.874;2022-12-24T07:10:18;10.40;93.10
43920;DHT22;29578;51.946;5.874;2022-12-24T07:12:44;10.40;93.10
43920;DHT22;29578;51.946;5.874;2022-12-24T07:15:13;10.40;93.10
43920;DHT22;29578;51.946;5.874;2022-12-24T07:17:39;10.40;93.10
43920;DHT22;29578;51.946;5.874;2022-12-24T07:20:06;10.40;93.10
43920;DHT22;29578;51.946;5.874;2022-12-24T07:22:32;10.40;93.10
43920;DHT22;29578;51.946;5.874;2022-12-24T07:24:57;10.40;93.10
43920;DHT22;29578;51.946;5.874;2022-12-24T07:27:23;10.40;93.10
43920;DHT22;29578;51.946;5.874;2022-12-24T07:29:49;10.40;93.20
43920;DHT22;29578;51.946;5.874;2022-12-24T07:32:14;10.30;93.20
43920;DHT22;29578;51.946;5.874;2022-12-24T07:34:40;10.30;93.20
43920;DHT22;29578;51.946;5.874;2022-12-24T07:37:06;10.30;93.20
43920;DHT22;29578;51.946;5.874;2022-12-24T07:39:32;10.30;93.20
43920;DHT22;29578;51.946;5.874;2022-12-24T07:41:57;10.30;93.20
43920;DHT22;29578;51.946;5.874;2022-12-24T07:44:23;10.40;93.20
43920;DHT22;29578;51.946;5.874;2022-12-24T07:46:49;10.40;93.10
43920;DHT22;29578;51.946;5.874;2022-12-24T07:49:15;10.40;93.10
43920;DHT22;29578;51.946;5.874;2022-12-24T07:51:41;10.40;93.10
43920;DHT22;29578;51.946;5.874;2022-12-24T07:54:06;10.40;93.10
43920;DHT22;29578;51.946;5.874;2022-12-24T07:56:32;10.30;93.10
43920;DHT22;29578;51.946;5.874;2022-12-24T07:58:58;10.30;93.10
43920;DHT22;29578;51.946;5.874;2022-12-24T08:01:24;10.30;93.10
43920;DHT22;29578;51.946;5.874;2022-12-24T08:03:49;10.30;93.10
43920;DHT22;29578;51.946;5.874;2022-12-24T08:06:19;10.30;93.10
43920;DHT22;29578;51.946;5.874;2022-12-24T08:08:44;10.40;93.20
43920;DHT22;29578;51.946;5.874;2022-12-24T08:11:10;10.40;93.20
43920;DHT22;29578;51.946;5.874;2022-12-24T08:13:36;10.40;93.10
43920;DHT22;29578;51.946;5.874;2022-12-24T08:16:02;10.40;93.10
43920;DHT22;29578;51.946;5.874;2022-12-24T08:18:27;10.40;93.10
43920;DHT22;29578;51.946;5.874;2022-12-24T08:20:53;10.40;93.10
43920;DHT22;29578;51.946;5.874;2022-12-24T08:23:18;10.30;93.00
43920;DHT22;29578;51.946;5.874;2022-12-24T08:25:46;10.40;93.10
43920;DHT22;29578;51.946;5.874;2022-12-24T08:28:14;10.40;93.00
43920;DHT22;29578;51.946;5.874;2022-12-24T08:30:41;10.40;93.10
43920;DHT22;29578;51.946;5.874;2022-12-24T08:33:07;10.40;93.10
43920;DHT22;29578;51.946;5.874;2022-12-24T08:35:33;10.40;93.10
43920;DHT22;29578;51.946;5.874;2022-12-24T08:37:59;10.30;93.00
43920;DHT22;29578;51.946;5.874;2022-12-24T08:40:25;10.30;93.00
43920;DHT22;29578;51.946;5.874;2022-12-24T08:42:50;10.40;93.10
43920;DHT22;29578;51.946;5.874;2022-12-24T08:45:16;10.30;93.00
43920;DHT22;29578;51.946;5.874;2022-12-24T08:47:42;10.40;93.10
43920;DHT22;29578;51.946;5.874;2022-12-24T08:50:08;10.40;93.00
43920;DHT22;29578;51.946;5.874;2022-12-24T08:52:35;10.40;93.00
43920;DHT22;29578;51.946;5.874;2022-12-24T08:55:01;10.40;93.00
43920;DHT22;29578;51.946;5.874;2022-12-24T08:57:26;10.50;93.00
43920;DHT22;29578;51.946;5.874;2022-12-24T08:59:52;10.40;93.00
43920;DHT22;29578;51.946;5.874;2022-12-24T09:02:18;10.40;92.90
43920;DHT22;29578;51.946;5.874;2022-12-24T09:04:44;10.40;92.90
43920;DHT22;29578;51.946;5.874;2022-12-24T09:07:09;10.50;93.00
43920;DHT22;29578;51.946;5.874;2022-12-24T09:09:35;10.50;93.00
43920;DHT22;29578;51.946;5.874;2022-12-24T09:12:03;10.50;93.00
43920;DHT22;29578;51.946;5.874;2022-12-24T09:14:29;10.50;93.00
43920;DHT22;29578;51.946;5.874;2022-12-24T09:16:55;10.60;92.90
43920;DHT22;29578;51.946;5.874;2022-12-24T09:19:20;10.70;92.90
43920;DHT22;29578;51.946;5.874;2022-12-24T09:21:46;10.80;92.90
43920;DHT22;29578;51.946;5.874;2022-12-24T09:24:12;10.70;92.80
43920;DHT22;29578;51.946;5.874;2022-12-24T09:26:39;10.80;92.80
43920;DHT22;29578;51.946;5.874;2022-12-24T09:29:06;10.80;92.70
43920;DHT22;29578;51.946;5.874;2022-12-24T09:31:32;10.90;92.70
43920;DHT22;29578;51.946;5.874;2022-12-24T09:33:57;10.80;92.70
43920;DHT22;29578;51.946;5.874;2022-12-24T09:36:23;10.80;92.70
43920;DHT22;29578;51.946;5.874;2022-12-24T09:38:50;10.80;92.70
43920;DHT22;29578;51.946;5.874;2022-12-24T09:44:34;10.80;92.70
43920;DHT22;29578;51.946;5.874;2022-12-24T09:47:04;10.90;92.70
43920;DHT22;29578;51.946;5.874;2022-12-24T09:49:38;11.00;92.70
43920;DHT22;29578;51.946;5.874;2022-12-24T09:52:09;10.90;92.70
43920;DHT22;29578;51.946;5.874;2022-12-24T09:54:40;10.90;92.70
43920;DHT22;29578;51.946;5.874;2022-12-24T09:57:17;10.90;92.70
43920;DHT22;29578;51.946;5.874;2022-12-24T09:59:45;10.90;92.70
43920;DHT22;29578;51.946;5.874;2022-12-24T10:02:14;10.90;92.60
43920;DHT22;29578;51.946;5.874;2022-12-24T10:04:42;10.90;92.70
43920;DHT22;29578;51.946;5.874;2022-12-24T10:07:30;11.00;92.70
43920;DHT22;29578;51.946;5.874;2022-12-24T10:10:17;11.00;92.70
43920;DHT22;29578;51.946;5.874;2022-12-24T10:13:00;11.10;92.60
43920;DHT22;29578;51.946;5.874;2022-12-24T10:15:34;11.10;92.60
43920;DHT22;29578;51.946;5.874;2022-12-24T10:21:11;11.10;92.50
43920;DHT22;29578;51.946;5.874;2022-12-24T10:23:46;11.10;92.40
43920;DHT22;29578;51.946;5.874;2022-12-24T10:26:17;11.10;92.40
43920;DHT22;29578;51.946;5.874;2022-12-24T10:28:55;11.10;92.50
43920;DHT22;29578;51.946;5.874;2022-12-24T10:31:25;11.10;92.50
43920;DHT22;29578;51.946;5.874;2022-12-24T10:33:57;11.20;92.50
43920;DHT22;29578;51.946;5.874;2022-12-24T10:36:27;11.20;92.40
43920;DHT22;29578;51.946;5.874;2022-12-24T10:38:54;11.30;92.50
43920;DHT22;29578;51.946;5.874;2022-12-24T10:41:20;11.30;92.40
43920;DHT22;29578;51.946;5.874;2022-12-24T10:43:46;11.40;92.40
43920;DHT22;29578;51.946;5.874;2022-12-24T10:46:27;11.50;92.40
43920;DHT22;29578;51.946;5.874;2022-12-24T10:49:01;11.60;92.30
43920;DHT22;29578;51.946;5.874;2022-12-24T10:51:46;11.70;92.20
43920;DHT22;29578;51.946;5.874;2022-12-24T10:54:17;11.80;92.10
43920;DHT22;29578;51.946;5.874;2022-12-24T10:56:48;11.80;92.00
43920;DHT22;29578;51.946;5.874;2022-12-24T10:59:27;11.80;92.00
43920;DHT22;29578;51.946;5.874;2022-12-24T11:01:55;11.70;92.00
43920;DHT22;29578;51.946;5.874;2022-12-24T11:04:23;11.70;92.00
43920;DHT22;29578;51.946;5.874;2022-12-24T11:07:00;11.70;92.10
43920;DHT22;29578;51.946;5.874;2022-12-24T11:09:30;11.70;92.00
43920;DHT22;29578;51.946;5.874;2022-12-24T11:11:57;11.70;92.10
43920;DHT22;29578;51.946;5.874;2022-12-24T11:14:24;11.60;92.10
43920;DHT22;29578;51.946;5.874;2022-12-24T11:16:54;11.60;92.20
43920;DHT22;29578;51.946;5.874;2022-12-24T11:19:30;11.60;92.20
43920;DHT22;29578;51.946;5.874;2022-12-24T11:21:59;11.70;92.10
43920;DHT22;29578;51.946;5.874;2022-12-24T11:24:30;11.80;92.20
43920;DHT22;29578;51.946;5.874;2022-12-24T11:30:20;11.70;92.10
43920;DHT22;29578;51.946;5.874;2022-12-24T11:33:14;11.70;92.10
43920;DHT22;29578;51.946;5.874;2022-12-24T11:35:45;11.70;92.10
43920;DHT22;29578;51.946;5.874;2022-12-24T11:38:18;11.80;92.10
43920;DHT22;29578;51.946;5.874;2022-12-24T11:40:47;11.60;92.00
43920;DHT22;29578;51.946;5.874;2022-12-24T11:43:17;11.50;92.10
43920;DHT22;29578;51.946;5.874;2022-12-24T11:45:53;11.50;92.10
43920;DHT22;29578;51.946;5.874;2022-12-24T11:48:34;11.50;92.20
43920;DHT22;29578;51.946;5.874;2022-12-24T11:51:01;11.50;92.30
43920;DHT22;29578;51.946;5.874;2022-12-24T11:53:42;11.50;92.20
43920;DHT22;29578;51.946;5.874;2022-12-24T11:56:23;11.50;92.20
43920;DHT22;29578;51.946;5.874;2022-12-24T11:58:55;11.40;92.20
43920;DHT22;29578;51.946;5.874;2022-12-24T12:01:41;11.30;92.10
43920;DHT22;29578;51.946;5.874;2022-12-24T12:04:16;11.40;92.10
43920;DHT22;29578;51.946;5.874;2022-12-24T12:06:49;11.30;92.20
43920;DHT22;29578;51.946;5.874;2022-12-24T12:09:21;11.30;92.20
43920;DHT22;29578;51.946;5.874;2022-12-24T12:11:52;11.30;92.20
43920;DHT22;29578;51.946;5.874;2022-12-24T12:14:28;11.30;92.30
43920;DHT22;29578;51.946;5.874;2022-12-24T12:19:44;11.40;92.20
43920;DHT22;29578;51.946;5.874;2022-12-24T12:22:23;11.40;92.10
43920;DHT22;29578;51.946;5.874;2022-12-24T12:24:54;11.50;92.10
43920;DHT22;29578;51.946;5.874;2022-12-24T12:27:36;11.40;92.00
43920;DHT22;29578;51.946;5.874;2022-12-24T12:30:08;11.50;92.30
43920;DHT22;29578;51.946;5.874;2022-12-24T12:32:46;11.50;92.00
43920;DHT22;29578;51.946;5.874;2022-12-24T12:35:26;11.50;92.00
43920;DHT22;29578;51.946;5.874;2022-12-24T12:37:57;11.50;92.00
43920;DHT22;29578;51.946;5.874;2022-12-24T12:40:33;11.50;91.90
43920;DHT22;29578;51.946;5.874;2022-12-24T12:43:24;11.40;91.90
43920;DHT22;29578;51.946;5.874;2022-12-24T12:46:19;11.40;92.00
43920;DHT22;29578;51.946;5.874;2022-12-24T12:48:58;11.40;92.20
43920;DHT22;29578;51.946;5.874;2022-12-24T12:51:45;11.40;92.10
43920;DHT22;29578;51.946;5.874;2022-12-24T12:57:11;11.50;91.90
43920;DHT22;29578;51.946;5.874;2022-12-24T12:59:43;11.40;91.80
43920;DHT22;29578;51.946;5.874;2022-12-24T13:11:32;11.30;91.80
43920;DHT22;29578;51.946;5.874;2022-12-24T13:14:19;11.30;92.10
43920;DHT22;29578;51.946;5.874;2022-12-24T13:17:13;11.30;91.80
43920;DHT22;29578;51.946;5.874;2022-12-24T13:20:01;11.20;91.80
43920;DHT22;29578;51.946;5.874;2022-12-24T13:22:29;11.20;91.80
43920;DHT22;29578;51.946;5.874;2022-12-24T13:24:55;11.20;91.80
43920;DHT22;29578;51.946;5.874;2022-12-24T13:27:25;11.10;91.70
43920;DHT22;29578;51.946;5.874;2022-12-24T13:30:02;11.10;91.70
43920;DHT22;29578;51.946;5.874;2022-12-24T13:32:39;11.10;91.80
43920;DHT22;29578;51.946;5.874;2022-12-24T13:35:25;11.00;91.70
43920;DHT22;29578;51.946;5.874;2022-12-24T13:37:51;11.00;91.80
43920;DHT22;29578;51.946;5.874;2022-12-24T13:40:25;11.00;91.80
43920;DHT22;29578;51.946;5.874;2022-12-24T13:43:08;11.00;91.80
43920;DHT22;29578;51.946;5.874;2022-12-24T13:45:43;10.90;91.80
43920;DHT22;29578;51.946;5.874;2022-12-24T13:48:25;10.90;91.80
43920;DHT22;29578;51.946;5.874;2022-12-24T13:50:54;10.90;91.70
43920;DHT22;29578;51.946;5.874;2022-12-24T13:53:31;10.80;91.70
43920;DHT22;29578;51.946;5.874;2022-12-24T13:56:19;10.80;91.70
43920;DHT22;29578;51.946;5.874;2022-12-24T13:58:48;10.80;91.70
43920;DHT22;29578;51.946;5.874;2022-12-24T14:01:18;10.90;91.60
43920;DHT22;29578;51.946;5.874;2022-12-24T14:03:47;10.80;91.60
43920;DHT22;29578;51.946;5.874;2022-12-24T14:06:28;10.80;91.60
43920;DHT22;29578;51.946;5.874;2022-12-24T14:09:08;10.70;91.60
43920;DHT22;29578;51.946;5.874;2022-12-24T14:14:36;10.70;91.50
43920;DHT22;29578;51.946;5.874;2022-12-24T14:17:21;10.70;91.50
43920;DHT22;29578;51.946;5.874;2022-12-24T14:19:53;10.60;91.50
43920;DHT22;29578;51.946;5.874;2022-12-24T14:22:27;10.70;91.60
43920;DHT22;29578;51.946;5.874;2022-12-24T14:25:19;10.80;91.60
43920;DHT22;29578;51.946;5.874;2022-12-24T14:27:57;10.70;91.50
43920;DHT22;29578;51.946;5.874;2022-12-24T14:30:26;10.70;91.40
43920;DHT22;29578;51.946;5.874;2022-12-24T14:32:53;10.80;91.50
43920;DHT22;29578;51.946;5.874;2022-12-24T14:35:23;10.80;91.40
43920;DHT22;29578;51.946;5.874;2022-12-24T14:37:59;10.90;91.40
43920;DHT22;29578;51.946;5.874;2022-12-24T14:40:28;10.80;91.30
43920;DHT22;29578;51.946;5.874;2022-12-24T14:43:02;11.00;91.30
43920;DHT22;29578;51.946;5.874;2022-12-24T14:45:50;11.00;91.10
43920;DHT22;29578;51.946;5.874;2022-12-24T14:49:01;11.10;91.00
43920;DHT22;29578;51.946;5.874;2022-12-24T14:51:32;11.00;91.00
43920;DHT22;29578;51.946;5.874;2022-12-24T14:54:17;10.90;91.00
43920;DHT22;29578;51.946;5.874;2022-12-24T14:56:45;10.80;91.20
43920;DHT22;29578;51.946;5.874;2022-12-24T14:59:16;10.60;91.20
43920;DHT22;29578;51.946;5.874;2022-12-24T15:01:42;10.60;91.30
43920;DHT22;29578;51.946;5.874;2022-12-24T15:04:17;10.50;91.40
43920;DHT22;29578;51.946;5.874;2022-12-24T15:06:49;10.50;91.50
43920;DHT22;29578;51.946;5.874;2022-12-24T15:09:20;10.40;91.60
43920;DHT22;29578;51.946;5.874;2022-12-24T15:11:49;10.30;91.60
43920;DHT22;29578;51.946;5.874;2022-12-24T15:14:16;10.20;91.90
43920;DHT22;29578;51.946;5.874;2022-12-24T15:16:51;10.20;91.70
43920;DHT22;29578;51.946;5.874;2022-12-24T15:19:23;10.20;91.80
43920;DHT22;29578;51.946;5.874;2022-12-24T15:21:50;10.10;91.90
43920;DHT22;29578;51.946;5.874;2022-12-24T15:24:27;10.00;91.90
43920;DHT22;29578;51.946;5.874;2022-12-24T15:26:53;9.90;92.00
43920;DHT22;29578;51.946;5.874;2022-12-24T15:29:23;9.90;92.10
43920;DHT22;29578;51.946;5.874;2022-12-24T15:31:52;9.80;92.00
43920;DHT22;29578;51.946;5.874;2022-12-24T15:34:34;9.60;92.10
43920;DHT22;29578;51.946;5.874;2022-12-24T15:37:06;9.70;92.20
43920;DHT22;29578;51.946;5.874;2022-12-24T15:39:38;9.60;92.20
43920;DHT22;29578;51.946;5.874;2022-12-24T15:42:05;9.60;92.30
43920;DHT22;29578;51.946;5.874;2022-12-24T15:44:41;9.50;92.30
43920;DHT22;29578;51.946;5.874;2022-12-24T15:47:14;9.50;92.30
43920;DHT22;29578;51.946;5.874;2022-12-24T15:49:43;9.30;92.30
43920;DHT22;29578;51.946;5.874;2022-12-24T15:52:13;9.30;92.40
43920;DHT22;29578;51.946;5.874;2022-12-24T15:54:45;9.40;92.50
43920;DHT22;29578;51.946;5.874;2022-12-24T15:57:22;9.20;92.50
43920;DHT22;29578;51.946;5.874;2022-12-24T15:59:56;9.10;92.50
43920;DHT22;29578;51.946;5.874;2022-12-24T16:02:37;9.00;92.80
43920;DHT22;29578;51.946;5.874;2022-12-24T16:05:18;9.00;92.60
43920;DHT22;29578;51.946;5.874;2022-12-24T16:08:21;9.00;92.60
43920;DHT22;29578;51.946;5.874;2022-12-24T16:10:50;8.90;92.60
43920;DHT22;29578;51.946;5.874;2022-12-24T16:13:22;8.90;92.70
43920;DHT22;29578;51.946;5.874;2022-12-24T16:15:53;8.90;92.70
43920;DHT22;29578;51.946;5.874;2022-12-24T16:18:24;8.80;92.70
43920;DHT22;29578;51.946;5.874;2022-12-24T16:20:52;8.70;92.70
43920;DHT22;29578;51.946;5.874;2022-12-24T16:23:20;8.70;92.70
43920;DHT22;29578;51.946;5.874;2022-12-24T16:25:47;8.70;92.70
43920;DHT22;29578;51.946;5.874;2022-12-24T16:28:13;8.70;92.70
43920;DHT22;29578;51.946;5.874;2022-12-24T16:30:39;8.70;92.70
43920;DHT22;29578;51.946;5.874;2022-12-24T16:33:05;8.70;92.70